Time;durP1;ratioP1;P1;durP2;ratioP2;P2;SDS_P1;SDS_P2;PMS_P1;PMS_P2;Temp;Humidity;BMP_temperature;BMP_pressure;BME280_temperature;BME280_humidity;BME280_pressure;Samples;Min_cycle;Max_cycle;Signal;HPM_P1;HPM_P2
2023/01/31 00:00:08;;;;;;;;;;;;;;;27.12;22.36;100246.53;5066071;28;1964;-31
2023/01/31 00:02:34;;;;;;;;;;;;;;;27.51;21.48;100241.59;5075286;28;1143;-32
2023/01/31 00:04:59;;;;;;;;;;;;;;;26.19;23.58;100250.72;5065990;28;1111;-32
2023/01/31 00:07:24;;;;;;;;;;;;;;;26.03;23.39;100251.75;5060172;28;1044;-34
2023/01/31 00:09:50;;;;;;;;;;;;;;;26.95;22.87;100243.22;5077072;28;1067;-30
2023/01/31 00:12:15;;;;;;;;;;;;;;;27.21;22.12;100247.19;5072381;28;954;-33
2023/01/31 00:14:40;;;;;;;;;;;;;;;27.71;21.51;100246.28;5057092;28;1060;-34
2023/01/31 00:17:05;;;;;;;;;;;;;;;26.36;23.04;100243.25;5052367;28;1086;-35
2023/01/31 00:19:31;;;;;;;;;;;;;;;25.98;23.58;100249.63;5067863;28;1905;-32
2023/01/31 00:21:56;;;;;;;;;;;;;;;26.79;23.00;100233.53;5072529;28;1158;-33
2023/01/31 00:24:22;;;;;;;;;;;;;;;26.90;22.40;100234.88;5057355;28;1136;-33
2023/01/31 00:26:49;;;;;;;;;;;;;;;27.42;21.77;100229.28;5074059;28;1056;-31
2023/01/31 00:29:14;;;;;;;;;;;;;;;26.77;22.45;100228.34;5059134;28;1168;-30
2023/01/31 00:31:39;;;;;;;;;;;;;;;26.27;23.18;100231.75;5072384;28;1068;-31
2023/01/31 00:34:05;;;;;;;;;;;;;;;26.55;23.11;100223.94;5057059;28;1044;-32
2023/01/31 00:36:32;;;;;;;;;;;;;;;27.13;22.33;100236.53;5056594;28;1059;-31
2023/01/31 00:38:58;;;;;;;;;;;;;;;27.53;22.22;100232.47;5057197;28;1897;-32
2023/01/31 00:41:24;;;;;;;;;;;;;;;27.07;22.19;100229.22;5061457;28;1080;-32
2023/01/31 00:43:50;;;;;;;;;;;;;;;26.04;23.76;100221.91;5075248;28;1096;-31
2023/01/31 00:46:15;;;;;;;;;;;;;;;26.12;23.21;100218.31;5076471;28;1067;-30
2023/01/31 00:48:40;;;;;;;;;;;;;;;26.98;22.60;100215.84;5068234;28;1060;-32
2023/01/31 00:51:06;;;;;;;;;;;;;;;27.44;21.96;100224.53;5074759;28;1120;-36
2023/01/31 00:53:31;;;;;;;;;;;;;;;27.25;21.91;100205.28;5075546;28;1074;-31
2023/01/31 00:56:06;;;;;;;;;;;;;;;26.21;23.64;100204.72;5072267;28;1032;-33
2023/01/31 00:58:32;;;;;;;;;;;;;;;26.12;23.45;100203.97;5056202;28;1217;-33
2023/01/31 01:01:04;;;;;;;;;;;;;;;27.00;22.63;100191.34;5056761;28;1913;-32
2023/01/31 01:03:29;;;;;;;;;;;;;;;27.30;22.25;100191.19;5056579;28;1087;-32
2023/01/31 01:05:54;;;;;;;;;;;;;;;27.77;21.42;100196.03;5062231;28;1064;-33
2023/01/31 01:08:20;;;;;;;;;;;;;;;26.90;22.28;100195.22;5064057;28;1191;-32
2023/01/31 01:10:45;;;;;;;;;;;;;;;26.52;22.91;100187.41;5056588;28;1072;-33
2023/01/31 01:13:10;;;;;;;;;;;;;;;27.47;21.89;100196.25;5068393;28;1151;-32
2023/01/31 01:15:36;;;;;;;;;;;;;;;26.65;22.32;100190.25;5057310;28;1051;-33
2023/01/31 01:18:02;;;;;;;;;;;;;;;26.44;22.93;100187.53;5068941;28;1155;-31
2023/01/31 01:20:27;;;;;;;;;;;;;;;26.90;22.87;100181.75;5039392;28;1968;-32
2023/01/31 01:22:52;;;;;;;;;;;;;;;27.06;22.69;100185.19;5068416;28;1136;-34
2023/01/31 01:25:18;;;;;;;;;;;;;;;27.40;22.07;100171.91;5076023;28;1059;-35
2023/01/31 01:27:43;;;;;;;;;;;;;;;27.12;22.33;100175.47;5076542;28;1063;-36
2023/01/31 01:30:09;;;;;;;;;;;;;;;26.12;23.91;100183.25;5057503;28;1058;-32
2023/01/31 01:32:34;;;;;;;;;;;;;;;26.17;23.68;100183.50;5056285;28;1025;-33
2023/01/31 01:34:59;;;;;;;;;;;;;;;26.87;22.98;100173.19;5061601;28;1024;-35
2023/01/31 01:37:24;;;;;;;;;;;;;;;27.19;22.51;100176.38;5076174;28;1027;-30
2023/01/31 01:39:51;;;;;;;;;;;;;;;27.69;21.72;100174.59;5057823;28;1901;-35
2023/01/31 01:42:17;;;;;;;;;;;;;;;26.48;23.16;100169.94;5067740;28;1112;-34
2023/01/31 01:44:48;;;;;;;;;;;;;;;26.23;23.43;100164.88;5063900;28;1087;-33
2023/01/31 01:47:20;;;;;;;;;;;;;;;26.83;22.91;100161.94;5063352;28;1123;-33
2023/01/31 01:49:46;;;;;;;;;;;;;;;26.96;22.57;100155.81;5063073;28;1159;-31
2023/01/31 01:52:11;;;;;;;;;;;;;;;27.77;21.98;100154.66;5062518;28;1043;-36
2023/01/31 01:54:41;;;;;;;;;;;;;;;26.52;23.20;100145.09;5038961;28;1112;-34
2023/01/31 01:57:07;;;;;;;;;;;;;;;26.22;23.42;100149.75;5056096;28;1151;-30
2023/01/31 02:00:02;;;;;;;;;;;;;;;26.86;23.04;100149.94;5075685;28;1909;-32
2023/01/31 02:02:27;;;;;;;;;;;;;;;27.08;22.59;100150.75;5054544;28;1564;-34
2023/01/31 02:04:53;;;;;;;;;;;;;;;27.56;22.01;100151.00;5067102;28;1198;-34
2023/01/31 02:07:18;;;;;;;;;;;;;;;26.63;23.07;100142.88;5044981;28;1203;-32
2023/01/31 02:09:43;;;;;;;;;;;;;;;25.95;23.86;100154.84;5065542;28;948;-30
2023/01/31 02:12:08;;;;;;;;;;;;;;;26.67;23.38;100159.53;5075467;28;1052;-33
2023/01/31 02:14:34;;;;;;;;;;;;;;;27.10;22.73;100158.63;5060923;28;1125;-36
2023/01/31 02:16:59;;;;;;;;;;;;;;;27.20;22.80;100158.28;5066288;28;1151;-36
2023/01/31 02:19:37;;;;;;;;;;;;;;;27.07;22.63;100159.03;5079345;28;1906;-33
2023/01/31 02:22:04;;;;;;;;;;;;;;;26.13;23.56;100159.81;5078697;28;1130;-33
2023/01/31 02:24:32;;;;;;;;;;;;;;;26.14;23.76;100153.41;5061773;28;1068;-34
2023/01/31 02:27:06;;;;;;;;;;;;;;;27.00;22.97;100164.34;5073205;28;1126;-31
2023/01/31 02:29:44;;;;;;;;;;;;;;;27.15;22.71;100158.88;5054971;28;1207;-34
2023/01/31 02:32:12;;;;;;;;;;;;;;;27.01;22.52;100155.22;5078869;28;1114;-35
2023/01/31 02:34:37;;;;;;;;;;;;;;;25.89;24.29;100153.75;5079023;28;1015;-34
2023/01/31 02:37:02;;;;;;;;;;;;;;;25.95;24.10;100158.38;5069308;28;1191;-35
2023/01/31 02:39:30;;;;;;;;;;;;;;;26.90;23.12;100151.22;5061299;28;1906;-34
2023/01/31 02:42:14;;;;;;;;;;;;;;;27.18;22.96;100153.09;5069470;28;1062;-35
2023/01/31 02:47:23;;;;;;;;;;;;;;;25.83;24.58;100143.72;5072706;28;1035;-35
2023/01/31 02:50:09;;;;;;;;;;;;;;;26.01;23.94;100144.13;5071236;28;1138;-34
2023/01/31 02:52:47;;;;;;;;;;;;;;;26.70;23.25;100146.50;5054631;28;1052;-32
2023/01/31 02:57:56;;;;;;;;;;;;;;;26.92;22.70;100156.41;5065054;28;1118;-31
2023/01/31 03:00:21;;;;;;;;;;;;;;;26.08;23.93;100163.09;5078463;28;1910;-34
2023/01/31 03:02:47;;;;;;;;;;;;;;;26.03;24.17;100160.13;5053880;28;1188;-35
2023/01/31 03:05:15;;;;;;;;;;;;;;;26.73;23.59;100156.03;5058833;28;1142;-36
2023/01/31 03:07:41;;;;;;;;;;;;;;;26.96;23.07;100144.19;5065741;28;1080;-31
2023/01/31 03:10:26;;;;;;;;;;;;;;;26.98;22.95;100148.34;5057209;28;998;-33
2023/01/31 03:13:09;;;;;;;;;;;;;;;25.99;23.99;100140.78;5060579;28;1072;-31
2023/01/31 03:18:27;;;;;;;;;;;;;;;26.75;23.21;100146.75;5044272;28;1017;-35
2023/01/31 03:20:55;;;;;;;;;;;;;;;27.26;22.74;100149.38;5069612;28;1981;-33
2023/01/31 03:23:21;;;;;;;;;;;;;;;27.04;22.57;100148.63;5072881;28;1132;-33
2023/01/31 03:25:47;;;;;;;;;;;;;;;26.01;24.16;100143.28;5056785;28;1039;-32
2023/01/31 03:28:13;;;;;;;;;;;;;;;25.90;24.10;100137.41;5060666;28;1136;-31
2023/01/31 03:30:40;;;;;;;;;;;;;;;26.82;23.38;100138.69;5060122;28;1047;-34
2023/01/31 03:33:11;;;;;;;;;;;;;;;27.06;23.31;100138.47;5077880;28;1177;-34
2023/01/31 03:35:36;;;;;;;;;;;;;;;27.38;22.47;100128.91;5068115;28;1023;-33
2023/01/31 03:38:07;;;;;;;;;;;;;;;26.07;24.30;100142.56;5043950;28;1085;-32
2023/01/31 03:40:36;;;;;;;;;;;;;;;25.99;23.95;100137.28;5050083;28;1967;-34
2023/01/31 03:43:07;;;;;;;;;;;;;;;26.74;23.56;100136.97;5059465;28;1033;-33
2023/01/31 03:45:37;;;;;;;;;;;;;;;27.02;23.02;100135.34;5059629;28;1063;-33
2023/01/31 03:48:02;;;;;;;;;;;;;;;27.19;22.81;100146.66;5041903;28;1191;-31
2023/01/31 03:50:29;;;;;;;;;;;;;;;26.36;23.50;100142.69;5040226;28;1120;-33
2023/01/31 03:53:13;;;;;;;;;;;;;;;26.21;23.84;100143.50;5041446;28;1566;-34
2023/01/31 03:55:42;;;;;;;;;;;;;;;26.95;23.19;100140.66;5077140;28;1426;-34
2023/01/31 03:58:07;;;;;;;;;;;;;;;27.08;23.04;100141.78;5068498;28;1054;-33
2023/01/31 04:00:32;;;;;;;;;;;;;;;27.31;22.19;100144.22;5058380;28;1910;-36
2023/01/31 04:03:01;;;;;;;;;;;;;;;26.15;24.20;100137.03;5047727;28;1146;-32
2023/01/31 04:05:30;;;;;;;;;;;;;;;26.00;24.09;100147.88;5059290;28;1028;-34
2023/01/31 04:07:56;;;;;;;;;;;;;;;26.75;23.52;100143.19;5051797;28;1151;-33
2023/01/31 04:10:21;;;;;;;;;;;;;;;27.06;22.81;100146.59;5052939;28;1175;-33
2023/01/31 04:12:46;;;;;;;;;;;;;;;27.31;22.20;100140.72;5066096;28;1060;-34
2023/01/31 04:15:12;;;;;;;;;;;;;;;26.19;22.28;100145.59;5076790;28;1123;-35
2023/01/31 04:17:37;;;;;;;;;;;;;;;23.91;19.55;100143.53;5064152;28;1075;-38
2023/01/31 04:20:04;;;;;;;;;;;;;;;23.16;20.09;100145.63;5057514;28;1897;-36
2023/01/31 04:22:30;;;;;;;;;;;;;;;22.72;20.03;100148.53;5056850;28;1092;-34
2023/01/31 04:24:55;;;;;;;;;;;;;;;24.65;21.32;100157.53;5070553;28;1605;-31
2023/01/31 04:27:20;;;;;;;;;;;;;;;26.50;19.12;100159.78;5076873;28;1063;-32
2023/01/31 04:29:45;;;;;;;;;;;;;;;26.63;19.71;100168.00;5063083;28;1070;-32
2023/01/31 04:32:11;;;;;;;;;;;;;;;26.70;20.14;100156.44;5076766;28;1056;-34
2023/01/31 04:34:36;;;;;;;;;;;;;;;26.90;20.21;100159.31;5063465;28;1335;-33
2023/01/31 04:37:01;;;;;;;;;;;;;;;27.03;20.32;100166.69;5056275;28;1104;-35
2023/01/31 04:39:27;;;;;;;;;;;;;;;27.08;20.39;100164.25;5056976;28;1905;-34
2023/01/31 04:41:52;;;;;;;;;;;;;;;27.27;19.75;100169.97;5063369;28;1203;-35
2023/01/31 04:44:17;;;;;;;;;;;;;;;27.42;18.85;100175.25;5075842;28;1131;-34
2023/01/31 04:46:42;;;;;;;;;;;;;;;27.53;17.28;100186.53;5063481;28;1210;-35
2023/01/31 04:49:08;;;;;;;;;;;;;;;27.53;16.39;100191.94;5063531;28;1136;-37
2023/01/31 04:51:33;;;;;;;;;;;;;;;27.58;15.83;100184.03;5056885;28;1108;-33
2023/01/31 04:53:58;;;;;;;;;;;;;;;27.56;16.19;100196.94;5070354;28;1132;-39
2023/01/31 04:56:24;;;;;;;;;;;;;;;27.39;16.89;100192.69;5064586;28;1250;-38
2023/01/31 04:58:49;;;;;;;;;;;;;;;27.45;17.05;100195.63;5062032;28;1241;-38
2023/01/31 05:01:14;;;;;;;;;;;;;;;27.71;17.16;100186.84;5076390;28;1902;-38
2023/01/31 05:03:39;;;;;;;;;;;;;;;27.72;17.57;100196.63;5075462;28;1028;-38
2023/01/31 05:06:05;;;;;;;;;;;;;;;26.36;19.26;100200.13;5069003;28;1088;-39
2023/01/31 05:08:30;;;;;;;;;;;;;;;27.38;18.67;100198.28;5070289;28;1114;-38
2023/01/31 05:10:56;;;;;;;;;;;;;;;28.18;18.03;100198.88;5075546;28;901;-34
2023/01/31 05:13:23;;;;;;;;;;;;;;;28.40;17.83;100193.31;5075699;28;1114;-38
2023/01/31 05:15:48;;;;;;;;;;;;;;;28.28;18.13;100201.22;5075755;28;1066;-35
2023/01/31 05:18:13;;;;;;;;;;;;;;;28.46;18.27;100196.06;5075468;28;1170;-37
2023/01/31 05:20:39;;;;;;;;;;;;;;;28.62;18.00;100196.69;5075671;28;1906;-38
2023/01/31 05:23:05;;;;;;;;;;;;;;;28.79;17.92;100196.28;5062083;28;1050;-37
2023/01/31 05:25:30;;;;;;;;;;;;;;;28.50;18.49;100201.03;5066572;28;2746;-37
2023/01/31 05:27:56;;;;;;;;;;;;;;;28.82;17.98;100206.69;5062332;28;1466;-39
2023/01/31 05:30:23;;;;;;;;;;;;;;;28.67;18.28;100209.59;5075610;28;1043;-35
2023/01/31 05:32:48;;;;;;;;;;;;;;;28.87;18.01;100219.59;5057830;28;1231;-36
2023/01/31 05:35:14;;;;;;;;;;;;;;;26.33;20.87;100207.75;5068180;28;1172;-37
2023/01/31 05:37:42;;;;;;;;;;;;;;;25.68;22.17;100220.00;5075651;28;1051;-38
2023/01/31 05:40:13;;;;;;;;;;;;;;;26.76;20.42;100225.81;5075547;28;1969;-36
2023/01/31 05:42:39;;;;;;;;;;;;;;;27.68;19.61;100222.38;5075627;28;1036;-38
2023/01/31 05:45:04;;;;;;;;;;;;;;;26.98;20.31;100220.38;5075953;28;1051;-39
2023/01/31 05:47:30;;;;;;;;;;;;;;;27.04;20.65;100218.81;5074848;28;853;-36
2023/01/31 05:49:55;;;;;;;;;;;;;;;27.69;20.00;100220.53;5079732;28;1131;-34
2023/01/31 05:52:20;;;;;;;;;;;;;;;27.77;20.22;100223.06;5079259;28;1067;-38
2023/01/31 05:54:45;;;;;;;;;;;;;;;27.74;19.88;100221.56;5077219;28;2540;-33
2023/01/31 05:57:13;;;;;;;;;;;;;;;27.60;20.29;100219.81;5079008;28;1227;-33
2023/01/31 05:59:38;;;;;;;;;;;;;;;27.92;19.79;100219.38;5078980;28;1905;-34
2023/01/31 06:02:03;;;;;;;;;;;;;;;28.04;19.87;100215.06;5079998;28;1112;-40
2023/01/31 06:04:29;;;;;;;;;;;;;;;28.35;19.55;100218.28;5079244;28;1110;-39
2023/01/31 06:06:54;;;;;;;;;;;;;;;28.22;19.68;100222.63;5079287;28;1098;-34
2023/01/31 06:09:19;;;;;;;;;;;;;;;28.41;19.52;100224.78;5079385;28;1066;-38
2023/01/31 06:11:45;;;;;;;;;;;;;;;28.55;19.52;100237.28;5079062;28;907;-37
2023/01/31 06:14:10;;;;;;;;;;;;;;;28.56;19.62;100240.81;5072803;28;1008;-40
2023/01/31 06:16:35;;;;;;;;;;;;;;;28.52;19.52;100229.56;5079362;28;1179;-40
2023/01/31 06:19:01;;;;;;;;;;;;;;;26.69;21.24;100227.63;5069660;28;1898;-36
2023/01/31 06:21:26;;;;;;;;;;;;;;;26.20;21.98;100236.22;5078653;28;1373;-37
2023/01/31 06:23:52;;;;;;;;;;;;;;;27.08;21.24;100231.72;5076914;28;1923;-37
2023/01/31 06:26:17;;;;;;;;;;;;;;;27.35;20.50;100245.44;5078559;28;1194;-41
2023/01/31 06:28:42;;;;;;;;;;;;;;;26.04;23.11;100240.78;5061082;28;1264;-37
2023/01/31 06:31:08;;;;;;;;;;;;;;;27.37;21.41;100242.53;5079383;28;1063;-37
2023/01/31 06:33:34;;;;;;;;;;;;;;;27.89;20.61;100253.06;5073278;28;1070;-39
2023/01/31 06:35:59;;;;;;;;;;;;;;;28.28;20.20;100252.59;5058811;28;859;-38
2023/01/31 06:38:25;;;;;;;;;;;;;;;28.54;20.08;100257.28;5072262;28;1227;-37
2023/01/31 06:40:50;;;;;;;;;;;;;;;28.54;19.90;100253.72;5071124;28;1961;-36
2023/01/31 06:43:15;;;;;;;;;;;;;;;28.36;20.11;100255.97;5077771;28;1043;-34
2023/01/31 06:45:43;;;;;;;;;;;;;;;28.25;20.14;100253.81;5078409;28;1137;-33
2023/01/31 06:48:09;;;;;;;;;;;;;;;26.50;22.40;100267.69;5072543;28;941;-33
2023/01/31 06:50:34;;;;;;;;;;;;;;;27.11;21.94;100265.63;5066095;28;1064;-31
2023/01/31 06:53:00;;;;;;;;;;;;;;;28.30;20.14;100269.44;5071163;28;1132;-33
2023/01/31 06:55:25;;;;;;;;;;;;;;;28.69;19.86;100277.91;5073651;28;2094;-36
2023/01/31 06:57:50;;;;;;;;;;;;;;;28.98;19.45;100273.16;5071762;28;1202;-34
2023/01/31 07:00:17;;;;;;;;;;;;;;;28.96;19.35;100270.63;5057294;28;1918;-34
2023/01/31 07:02:42;;;;;;;;;;;;;;;28.67;19.88;100272.69;5064267;28;1080;-37
2023/01/31 07:05:08;;;;;;;;;;;;;;;28.65;20.17;100273.91;5066001;28;1107;-37
2023/01/31 07:07:33;;;;;;;;;;;;;;;28.75;19.82;100274.38;5077179;28;1227;-35
2023/01/31 07:09:58;;;;;;;;;;;;;;;28.81;20.06;100283.53;5077876;28;1458;-33
2023/01/31 07:12:24;;;;;;;;;;;;;;;28.91;19.88;100289.38;5077765;28;906;-31
2023/01/31 07:14:49;;;;;;;;;;;;;;;28.88;19.81;100291.69;5073035;28;1047;-37
2023/01/31 07:17:14;;;;;;;;;;;;;;;28.76;20.05;100291.44;5068930;28;983;-31
2023/01/31 07:19:40;;;;;;;;;;;;;;;28.96;19.93;100283.34;5077757;28;1894;-31
2023/01/31 07:22:05;;;;;;;;;;;;;;;29.07;19.77;100287.34;5077625;28;1047;-37
2023/01/31 07:24:30;;;;;;;;;;;;;;;28.94;20.18;100298.97;5069525;28;1964;-33
2023/01/31 07:26:56;;;;;;;;;;;;;;;26.72;22.13;100287.44;5068382;28;1091;-36
2023/01/31 07:29:21;;;;;;;;;;;;;;;26.97;22.27;100284.34;5073760;28;1067;-32
2023/01/31 07:31:46;;;;;;;;;;;;;;;28.60;20.37;100288.91;5068361;28;1241;-35
2023/01/31 07:34:11;;;;;;;;;;;;;;;26.38;22.62;100278.97;5060314;28;1139;-35
2023/01/31 07:36:37;;;;;;;;;;;;;;;26.10;23.44;100276.09;5068083;28;947;-33
2023/01/31 07:39:02;;;;;;;;;;;;;;;27.87;21.55;100277.59;5074083;28;1891;-32
2023/01/31 07:41:27;;;;;;;;;;;;;;;28.55;20.83;100280.56;5049870;28;1202;-37
2023/01/31 07:43:52;;;;;;;;;;;;;;;28.33;21.14;100283.41;5076785;28;1183;-34
2023/01/31 07:46:18;;;;;;;;;;;;;;;28.50;20.85;100283.06;5075674;28;1139;-33
2023/01/31 07:48:43;;;;;;;;;;;;;;;28.32;21.01;100280.88;5065778;28;916;-36
2023/01/31 07:51:08;;;;;;;;;;;;;;;28.32;21.25;100281.72;5063872;28;1119;-31
2023/01/31 07:53:35;;;;;;;;;;;;;;;28.56;21.03;100274.13;5077403;28;1901;-36
2023/01/31 07:56:13;;;;;;;;;;;;;;;28.58;21.06;100279.31;5070349;28;1107;-34
2023/01/31 07:58:39;;;;;;;;;;;;;;;28.15;21.82;100273.13;5066665;28;1152;-30
2023/01/31 08:03:48;;;;;;;;;;;;;;;28.14;21.82;100276.03;5069436;28;903;-34
2023/01/31 08:06:13;;;;;;;;;;;;;;;28.21;21.64;100280.44;5078743;28;1081;-29
2023/01/31 08:08:39;;;;;;;;;;;;;;;28.18;21.77;100280.84;5070068;28;1023;-32
2023/01/31 08:11:05;;;;;;;;;;;;;;;28.14;21.53;100284.16;5069318;28;1131;-34
2023/01/31 08:13:30;;;;;;;;;;;;;;;28.19;21.44;100279.81;5063522;28;957;-34
2023/01/31 08:15:56;;;;;;;;;;;;;;;28.29;21.63;100274.03;5077064;28;789;-35
2023/01/31 08:18:21;;;;;;;;;;;;;;;28.40;21.38;100269.06;5063310;28;1037;-32
2023/01/31 08:20:46;;;;;;;;;;;;;;;28.39;21.01;100280.94;5062889;28;1898;-32
2023/01/31 08:23:11;;;;;;;;;;;;;;;28.36;21.20;100283.00;5056407;28;1167;-35
2023/01/31 08:25:37;;;;;;;;;;;;;;;28.44;21.20;100289.28;5072974;28;2229;-31
2023/01/31 08:28:02;;;;;;;;;;;;;;;28.47;21.35;100294.28;5062837;28;1034;-41
2023/01/31 08:30:27;;;;;;;;;;;;;;;28.54;21.30;100303.28;5063161;28;1063;-32
2023/01/31 08:32:53;;;;;;;;;;;;;;;28.47;21.12;100302.41;5056510;28;1060;-31
2023/01/31 08:35:18;;;;;;;;;;;;;;;28.71;20.92;100303.72;5068901;28;1000;-38
2023/01/31 08:37:43;;;;;;;;;;;;;;;28.77;20.73;100303.94;5069479;28;1218;-37
2023/01/31 08:40:09;;;;;;;;;;;;;;;28.65;20.95;100309.09;5069024;28;1898;-32
2023/01/31 08:42:34;;;;;;;;;;;;;;;28.66;20.72;100308.91;5076011;28;1036;-36
2023/01/31 08:44:59;;;;;;;;;;;;;;;28.78;20.96;100306.44;5069589;28;1159;-41
2023/01/31 08:47:25;;;;;;;;;;;;;;;28.82;20.84;100306.84;5069528;28;1055;-33
2023/01/31 08:49:50;;;;;;;;;;;;;;;28.97;20.61;100312.13;5059130;28;1072;-38
2023/01/31 08:52:15;;;;;;;;;;;;;;;28.90;20.88;100303.97;5075875;28;1217;-33
2023/01/31 08:54:41;;;;;;;;;;;;;;;28.83;20.80;100309.34;5058272;28;2141;-31
2023/01/31 08:57:06;;;;;;;;;;;;;;;28.88;20.90;100307.94;5069291;28;1189;-35
2023/01/31 08:59:32;;;;;;;;;;;;;;;28.95;20.98;100314.16;5069209;28;1914;-36
2023/01/31 09:01:57;;;;;;;;;;;;;;;29.14;20.62;100304.44;5069332;28;1194;-36
2023/01/31 09:04:22;;;;;;;;;;;;;;;29.06;20.53;100307.34;5069334;28;1060;-39
2023/01/31 09:06:48;;;;;;;;;;;;;;;29.21;20.67;100307.97;5069401;28;1120;-35
2023/01/31 09:09:13;;;;;;;;;;;;;;;29.18;20.28;100312.97;5062116;28;1131;-36
2023/01/31 09:11:39;;;;;;;;;;;;;;;29.20;20.78;100310.88;5062952;28;1131;-35
2023/01/31 09:14:04;;;;;;;;;;;;;;;29.41;20.33;100311.72;5069095;28;1084;-31
2023/01/31 09:16:29;;;;;;;;;;;;;;;29.36;20.40;100309.66;5068969;28;1019;-31
2023/01/31 09:18:55;;;;;;;;;;;;;;;29.36;20.23;100312.34;5068754;28;1112;-30
2023/01/31 09:21:21;;;;;;;;;;;;;;;29.26;20.43;100312.75;5055959;28;1906;-37
2023/01/31 09:23:46;;;;;;;;;;;;;;;29.12;20.46;100321.91;5059462;28;1883;-32
2023/01/31 09:26:12;;;;;;;;;;;;;;;29.15;19.47;100305.25;5055892;28;1104;-30
2023/01/31 09:28:37;;;;;;;;;;;;;;;29.02;19.16;100304.22;5068849;28;1150;-31
2023/01/31 09:31:06;;;;;;;;;;;;;;;29.05;19.18;100308.38;5068544;28;1170;-34
2023/01/31 09:33:32;;;;;;;;;;;;;;;29.16;18.94;100307.75;5075747;28;984;-31
2023/01/31 09:35:58;;;;;;;;;;;;;;;29.29;18.90;100315.06;5062687;28;1046;-35
2023/01/31 09:38:23;;;;;;;;;;;;;;;29.19;18.85;100326.31;5068113;28;1082;-33
2023/01/31 09:40:49;;;;;;;;;;;;;;;28.98;17.75;100316.47;5055924;28;1898;-35
2023/01/31 09:43:14;;;;;;;;;;;;;;;29.09;17.51;100315.06;5054764;28;1104;-31
2023/01/31 09:45:41;;;;;;;;;;;;;;;28.95;17.83;100308.75;5076036;28;1020;-31
2023/01/31 09:48:07;;;;;;;;;;;;;;;29.05;17.91;100313.78;5052121;28;1059;-33
2023/01/31 09:50:34;;;;;;;;;;;;;;;29.14;17.91;100311.72;5037873;28;1115;-33
2023/01/31 09:52:59;;;;;;;;;;;;;;;28.95;18.20;100312.31;5051522;28;1091;-33
2023/01/31 09:55:27;;;;;;;;;;;;;;;29.03;18.28;100307.78;5057787;28;2119;-36
2023/01/31 09:58:14;;;;;;;;;;;;;;;29.15;18.25;100302.53;5054919;28;1079;-32
2023/01/31 10:00:51;;;;;;;;;;;;;;;29.11;18.31;100306.72;5070931;28;1977;-31
2023/01/31 10:03:29;;;;;;;;;;;;;;;28.97;18.54;100312.13;5044347;28;965;-30
2023/01/31 10:06:07;;;;;;;;;;;;;;;29.19;18.40;100312.78;5056948;28;1031;-32
2023/01/31 10:08:39;;;;;;;;;;;;;;;28.87;18.68;100317.91;5065087;28;1115;-32
2023/01/31 10:11:05;;;;;;;;;;;;;;;28.85;18.14;100317.28;5051203;28;1009;-35
2023/01/31 10:13:34;;;;;;;;;;;;;;;28.73;17.30;100307.06;5055353;28;861;-31
2023/01/31 10:16:00;;;;;;;;;;;;;;;28.54;17.32;100308.69;5073530;28;1047;-34
2023/01/31 10:18:26;;;;;;;;;;;;;;;28.62;16.61;100312.22;5056822;28;1098;-33
2023/01/31 10:21:10;;;;;;;;;;;;;;;28.52;16.48;100310.75;5074896;28;1910;-34
2023/01/31 10:23:37;;;;;;;;;;;;;;;28.42;16.35;100303.03;5056075;28;1903;-36
2023/01/31 10:26:08;;;;;;;;;;;;;;;28.53;15.83;100298.88;5056279;28;877;-35
2023/01/31 10:28:52;;;;;;;;;;;;;;;28.47;15.81;100300.53;5055443;28;1057;-36
2023/01/31 10:31:39;;;;;;;;;;;;;;;28.57;15.60;100302.00;5054769;28;1040;-34
2023/01/31 10:34:24;;;;;;;;;;;;;;;28.41;15.39;100279.69;5061243;28;973;-31
2023/01/31 10:36:57;;;;;;;;;;;;;;;28.53;16.17;100292.66;5063528;28;1392;-36
2023/01/31 10:39:33;;;;;;;;;;;;;;;28.50;16.45;100274.09;5078253;28;1894;-33
2023/01/31 10:42:01;;;;;;;;;;;;;;;28.56;16.65;100290.34;5060301;28;1100;-33
2023/01/31 10:44:42;;;;;;;;;;;;;;;28.68;16.95;100289.75;5078261;28;1154;-34
2023/01/31 10:47:09;;;;;;;;;;;;;;;28.64;17.08;100280.38;5065650;28;1033;-31
2023/01/31 10:49:35;;;;;;;;;;;;;;;28.83;17.09;100278.75;5060341;28;1115;-34
2023/01/31 10:52:07;;;;;;;;;;;;;;;28.82;16.99;100285.19;5053739;28;993;-32
2023/01/31 10:55:02;;;;;;;;;;;;;;;28.78;17.41;100281.25;5046492;28;1893;-32
2023/01/31 10:57:28;;;;;;;;;;;;;;;28.78;17.43;100278.56;5057690;28;1215;-34
2023/01/31 10:59:53;;;;;;;;;;;;;;;28.76;17.52;100286.84;5068071;28;1969;-34
2023/01/31 11:02:22;;;;;;;;;;;;;;;28.82;17.78;100283.34;5072752;28;917;-34
2023/01/31 11:04:48;;;;;;;;;;;;;;;28.89;17.98;100288.75;5040951;28;1103;-35
2023/01/31 11:07:14;;;;;;;;;;;;;;;28.84;17.96;100286.66;5061772;28;1005;-31
2023/01/31 11:09:39;;;;;;;;;;;;;;;28.85;18.08;100292.91;5049767;28;1176;-30
2023/01/31 11:12:05;;;;;;;;;;;;;;;28.78;18.04;100278.56;5057210;28;1183;-31
2023/01/31 11:14:30;;;;;;;;;;;;;;;28.82;18.18;100285.19;5068895;28;1009;-35
2023/01/31 11:17:05;;;;;;;;;;;;;;;28.91;18.03;100289.38;5064027;28;1125;-34
2023/01/31 11:19:42;;;;;;;;;;;;;;;28.87;18.22;100287.28;5077624;28;1898;-32
2023/01/31 11:22:08;;;;;;;;;;;;;;;29.03;18.10;100283.41;5081610;28;1399;-32
2023/01/31 11:24:33;;;;;;;;;;;;;;;29.14;17.80;100284.63;5044517;28;1963;-37
2023/01/31 11:27:01;;;;;;;;;;;;;;;29.11;18.15;100282.34;5040269;28;1315;-36
2023/01/31 11:29:31;;;;;;;;;;;;;;;28.98;18.19;100278.56;5058359;28;1060;-35
2023/01/31 11:31:58;;;;;;;;;;;;;;;28.99;18.00;100282.97;5057540;28;1067;-36
2023/01/31 11:34:24;;;;;;;;;;;;;;;29.02;17.61;100285.25;5053284;28;1001;-34
2023/01/31 11:36:49;;;;;;;;;;;;;;;29.02;17.80;100285.25;5077391;28;1075;-34
2023/01/31 11:39:25;;;;;;;;;;;;;;;29.16;17.68;100283.38;5077072;28;1964;-34
2023/01/31 11:41:50;;;;;;;;;;;;;;;29.01;18.11;100286.28;5077373;28;1093;-32
2023/01/31 11:44:16;;;;;;;;;;;;;;;29.14;18.37;100288.19;5073933;28;873;-36
2023/01/31 11:46:43;;;;;;;;;;;;;;;29.08;18.20;100273.59;5057710;28;1064;-35
2023/01/31 11:49:10;;;;;;;;;;;;;;;29.03;18.30;100281.50;5039710;28;1044;-36
2023/01/31 11:51:35;;;;;;;;;;;;;;;29.08;18.30;100283.56;5064980;28;1027;-33
2023/01/31 11:54:02;;;;;;;;;;;;;;;29.03;18.16;100276.09;5066613;28;1943;-33
2023/01/31 11:56:28;;;;;;;;;;;;;;;29.04;18.13;100282.34;5051337;28;1209;-36
2023/01/31 11:58:55;;;;;;;;;;;;;;;29.08;18.18;100281.72;5063590;28;1076;-31
2023/01/31 12:01:21;;;;;;;;;;;;;;;29.15;18.36;100286.28;5064934;28;1969;-32
2023/01/31 12:04:05;;;;;;;;;;;;;;;29.03;18.21;100280.69;5076795;28;1020;-30
2023/01/31 12:06:36;;;;;;;;;;;;;;;27.69;19.69;100269.16;5059263;28;1041;-34
2023/01/31 12:09:03;;;;;;;;;;;;;;;26.75;20.81;100267.31;5069013;28;1076;-35
2023/01/31 12:11:29;;;;;;;;;;;;;;;28.49;19.27;100281.41;5076311;28;1107;-33
2023/01/31 12:14:01;;;;;;;;;;;;;;;29.05;18.86;100275.88;5056741;28;1166;-32
2023/01/31 12:16:27;;;;;;;;;;;;;;;29.18;18.47;100278.59;5074945;28;1180;-33
2023/01/31 12:18:55;;;;;;;;;;;;;;;29.43;18.20;100285.22;5076736;28;1067;-32
2023/01/31 12:21:23;;;;;;;;;;;;;;;29.04;18.68;100285.06;5062666;28;1979;-31
2023/01/31 12:24:07;;;;;;;;;;;;;;;28.96;18.71;100291.47;5067112;28;1849;-33
2023/01/31 12:26:43;;;;;;;;;;;;;;;28.89;19.18;100285.22;5056027;28;869;-35
2023/01/31 12:29:24;;;;;;;;;;;;;;;28.85;19.02;100288.34;5068424;28;1008;-38
2023/01/31 12:32:12;;;;;;;;;;;;;;;28.75;19.27;100300.59;5058243;28;999;-32
2023/01/31 12:34:46;;;;;;;;;;;;;;;28.78;18.94;100289.38;5058317;28;1000;-33
2023/01/31 12:37:24;;;;;;;;;;;;;;;28.90;18.78;100301.25;5068955;28;1198;-34
2023/01/31 12:39:59;;;;;;;;;;;;;;;28.84;18.99;100299.38;5052412;28;1902;-36
2023/01/31 12:42:31;;;;;;;;;;;;;;;28.95;18.67;100304.19;5075513;28;1043;-34
2023/01/31 12:45:14;;;;;;;;;;;;;;;28.85;18.96;100309.16;5069691;28;1111;-31
2023/01/31 12:47:45;;;;;;;;;;;;;;;28.91;18.98;100304.81;5067432;28;1198;-36
2023/01/31 12:50:25;;;;;;;;;;;;;;;28.94;19.27;100312.50;5066958;28;1142;-35
2023/01/31 12:52:53;;;;;;;;;;;;;;;29.03;18.93;100305.06;5067609;28;1168;-34
2023/01/31 12:55:30;;;;;;;;;;;;;;;29.13;19.14;100307.34;5051654;28;1935;-33
2023/01/31 12:58:14;;;;;;;;;;;;;;;29.13;19.11;100315.47;5063281;28;1218;-33
2023/01/31 13:00:39;;;;;;;;;;;;;;;28.15;19.86;100318.25;5059565;28;1901;-33